North Liberty, Indiana
Current Conditions -  °F | °C
As of 6:54 PM on Friday 31 Oct 2014 (Local Time) from KSBN Reporting Station
Overcast Overcast  
Wind Chill: 23°   Ceiling: 4000
Heat Index: 36°   Visibility: 10mi
Dew Point: 32°   Wind: 29mph
Humidity: 86%   Direction: 360°N
Pressure: 30.17"   Gusts: 44mph
Location:  41.53°N, 86.43°W
Report Text: KSBN 312254Z 36025G38KT 10SM OVC040 02/00 A3017 RMK AO2 PK WND 01039/2243 SNB08E20 SLP222 P0000 T00220000 $
Loading
Personal Weather Stations






























Interactive Weather Map
Tropical Storm Tracking
New forecast layout! Learn more

10-Day Weather Forecast

Advertisements
Track Severe Weather on mobile